Historyczne dane pomiarowe

Dodano dane terminowe – wersja testowa.

Dane z okresu 1951-2019

Wersja bazy: 1.34 [2019-03-16, lista zmian], aktualizacja planowana na 2019-04-15

Dane meteo z obszaru Polski uzyskane na podstawie danych udostępnionych przez Instytut Meteorologii i Gospodarki Wodnej – Państwowy Instytut Badawczy.

 

Wybierz Datę:    

       

TemperaturaWilgotnośćWiatrCiśnienieOpadyŚniegCzas trwania zjawisk
 Stacja t tx tn tng RH VA  wxwx mslp ppp RRR   cm mm wxwxwxwxwxwxwx
2019-07-03 15.5 21.7 8.3 6.5 47.3- 2.7 3.7---- 0.0------------
2019-07-02 20.5 25.7 17.1 15.7 58.8- 5.0 5.0---- 0.0------------
2019-07-01 26.4 36.0 21.5 19.6 54.3- 4.7 4.7---- 6.0------------
2019-06-30 24.6 35.5 12.0 10.8 46.8- 1.7 3.7---- 0.0------------
2019-06-29 18.8 27.9 9.8 8.4 53.0- 2.3 3.3---- 0.0------------
2019-06-28 15.2 22.7 9.7 9.1 81.0- 6.0 2.0---- 0.0------------
2019-06-27 23.7 27.6 21.3 19.6 45.5- 1.7 5.0---- 0.0------------
2019-06-26 26.7 35.3 17.7 16.4 57.5- 2.7 3.7---- 0.0------------
2019-06-25 24.2 32.6 13.8 12.6 60.0- 3.0 3.3---- 0.0------------
2019-06-24 20.8 28.7 12.6 10.5 57.0- 3.7 3.7---- 0.0------------
2019-06-23 20.6 26.2 14.8 13.7 53.0- 4.7 4.0---- 0.0------------
2019-06-22 20.0 25.5 14.0 12.3 70.0- 5.3 3.0---- 0.0------------
2019-06-21 20.7 27.6 13.7 12.2 71.8- 4.7 2.3---- 1.6------------
2019-06-20 23.0 30.0 17.3 16.1 69.3- 5.7 3.7---- 0.1------------
2019-06-19 22.6 30.2 12.7 11.3 64.5- 5.3 2.0---- 0.0------------
2019-06-18 19.6 27.0 11.2 9.8 67.0- 4.3 2.7---- 0.0------------
2019-06-17 19.9 25.4 13.7 12.3 57.0- 3.3 2.7---- 0.0------------
2019-06-16 21.1 26.2 16.3 16.0 76.5- 5.7 2.0---- 0.7------------
2019-06-15 24.5 33.4 18.1 16.6 65.8- 4.7 2.3---- 0.2------------
2019-06-14 22.9 29.7 17.2 16.8 81.5- 5.7 1.0---- 0.0------------
2019-06-13 24.5 32.4 16.6 16.1 65.8- 6.0 2.3---- 8.1------------
2019-06-12 25.7 32.8 16.4 14.4 54.5- 2.7 3.0---- 0.0------------
2019-06-11 25.2 33.9 15.6 14.2 57.3- 3.3 2.7---- 0.0------------
2019-06-10 24.0 32.0 16.3 15.1 67.5- 4.3 3.0---- 0.0------------
2019-06-09 18.8 26.7 8.0 6.8 59.0- 3.0 2.0---- 0.0------------
2019-06-08 19.2 26.8 12.6 12.1 77.5- 5.7 3.0---- 0.0------------
2019-06-07 19.6 24.6 14.3 13.4 85.5- 5.3 1.7---- 0.0------------
2019-06-06 20.0 27.2 13.2 12.2 72.3- 5.0 3.0---- 0.6------------
2019-06-05 21.4 28.2 13.7 12.6 68.8- 4.3 4.3---- 0.1------------
2019-06-04 21.9 28.7 13.0 11.3 60.3- 3.3 3.3---- 0.0------------
2019-06-03 19.1 28.3 10.7 9.8 66.5- 3.0 3.0---- 0.0------------
2019-06-02 19.9 28.2 10.1 9.3 67.0- 3.7 1.0---- 0.0------------
2019-06-01 18.3 23.7 10.2 8.9 70.5- 4.3 1.0---- 0.0------------
2019-05-31 15.2 23.0 8.8 8.1 73.0- 4.3 1.7---- 0.0------------
2019-05-30 11.8 17.7 4.7 2.7 57.3- 5.7 2.0---- 0.0------------
2019-05-29 12.2 16.2 9.7 9.8 83.5- 6.3 3.3---- 0.1------------
2019-05-28 17.4 21.5 14.3 13.5 87.0- 7.7 1.3---- 15.7------------
2019-05-27 18.6 25.6 10.5 8.9 69.0- 5.7 2.7---- 2.1------------
2019-05-26 15.2 22.2 7.7 6.6 69.0- 3.3 2.0---- 0.0------------
2019-05-25 13.7 21.7 4.9 4.0 77.5- 5.3 2.0---- 0.0------------
2019-05-24 13.6 18.6 9.7 9.7 77.3- 5.7 1.7---- 0.0------------
2019-05-23 12.0 14.5 10.7 10.1 98.0- 8.0 4.3---- 0.4------------
2019-05-22 14.3 18.5 12.2 11.5 87.3- 7.0 4.3---- 31.0------------
2019-05-21 13.6 19.2 8.1 7.3 89.0- 7.3 2.0---- 6.9------------
2019-05-20 16.4 22.2 10.2 8.3 80.8- 5.7 2.7---- 0.0------------
2019-05-19 16.2 24.9 9.7 8.1 81.0- 4.7 1.7---- 0.9------------
2019-05-18 15.3 23.2 8.0 6.8 79.3- 6.0 1.3---- 10.2------------
2019-05-17 13.6 20.2 8.8 6.9 89.3- 6.7 1.3---- 0.1------------
2019-05-16 10.3 13.7 8.1 7.7 99.8- 6.7 1.7---- 8.5------------
2019-05-15 7.6 9.1 5.8 5.4 98.8- 8.0 3.0---- 2.2------------
2019-05-14 6.1 9.1 2.9 1.5 86.5- 7.7 3.3---- 8.4------------
2019-05-13 7.7 11.5 5.8 5.7 83.0- 8.0 2.7---- 0.0------------
2019-05-12 10.2 15.7 6.7 6.4 95.3- 8.0 4.3---- 1.6------------
2019-05-11 12.3 19.1 4.7 3.3 76.5- 5.7 1.0---- 0.0------------
2019-05-10 11.1 18.4 6.3 5.6 95.5- 8.0 1.3---- 6.7------------
2019-05-09 8.8 10.2 6.8 5.6 91.8- 8.0 3.0---- 3.3------------
2019-05-08 9.4 16.8 1.0 0.3 58.8- 4.7 2.3---- 0.1------------
2019-05-07 6.8 13.1 0.0 -1.5 73.3- 6.0 3.7---- 0.1------------
2019-05-06 7.9 11.3 4.9 3.4 56.8- 7.0 3.3---- 0.0------------
2019-05-05 5.9 11.2 2.5 2.7 77.5- 7.7 3.7---- 0.0------------
114.8 ms

 

Źródłem pochodzenia danych jest Instytut Meteorologii i Gospodarki Wodnej – Państwowy Instytut Badawczy. Dane Instytutu Meteorologii i Gospodarki Wodnej – Państwowego Instytutu Badawczego zostały przetworzone.

Dane źródłowe można odnaleźć na stronie https://dane.imgw.pl